createdAt,value
2019-04-01T00:02:35.940Z,1.50
2019-04-01T00:05:23.177Z,1.10
2019-04-01T00:08:10.369Z,1.60
2019-04-01T00:10:57.599Z,1.40
2019-04-01T00:13:45.083Z,1.17
2019-04-01T00:16:32.560Z,1.77
2019-04-01T00:19:19.770Z,1.30
2019-04-01T00:22:07.024Z,1.77
2019-04-01T00:24:54.001Z,2.30
2019-04-01T00:27:41.157Z,2.03
2019-04-01T00:30:28.438Z,1.80
2019-04-01T00:33:15.636Z,2.00
2019-04-01T00:36:02.621Z,2.00
2019-04-01T00:38:49.903Z,2.40
2019-04-01T00:41:46.113Z,2.13
2019-04-01T00:44:33.364Z,1.77
2019-04-01T00:47:20.420Z,1.97
2019-04-01T00:50:07.884Z,1.60
2019-04-01T00:52:55.101Z,1.50
2019-04-01T00:55:42.500Z,1.60
2019-04-01T00:58:30.597Z,1.60
2019-04-01T01:01:18.010Z,1.57
2019-04-01T01:04:05.028Z,1.30
2019-04-01T01:06:52.265Z,1.30
2019-04-01T01:09:39.183Z,1.40
2019-04-01T01:12:26.096Z,1.37
2019-04-01T01:15:13.666Z,1.43
2019-04-01T01:18:00.860Z,0.80
2019-04-01T01:20:48.117Z,1.30
2019-04-01T01:23:35.300Z,1.10
2019-04-01T01:26:22.249Z,2.03
2019-04-01T01:29:09.455Z,1.10
2019-04-01T01:31:56.929Z,1.43
2019-04-01T01:34:43.876Z,1.30
2019-04-01T01:37:31.088Z,1.27
2019-04-01T01:40:18.260Z,1.23
2019-04-01T01:43:05.441Z,1.20
2019-04-01T01:45:52.352Z,1.00
2019-04-01T01:48:39.284Z,1.37
2019-04-01T01:51:26.336Z,1.33
2019-04-01T01:54:13.513Z,1.23
2019-04-01T01:57:01.013Z,1.13
2019-04-01T01:59:48.407Z,1.27
2019-04-01T02:02:35.805Z,1.30
2019-04-01T02:05:23.101Z,1.50
2019-04-01T02:08:10.065Z,1.67
2019-04-01T02:10:57.525Z,1.27
2019-04-01T02:13:44.745Z,1.50
2019-04-01T02:16:31.965Z,1.40
2019-04-01T02:19:19.252Z,1.00
2019-04-01T02:22:06.443Z,1.40
2019-04-01T02:24:53.684Z,1.57
2019-04-01T02:27:40.866Z,1.40
2019-04-01T02:30:28.215Z,1.00
2019-04-01T02:33:15.425Z,0.87
2019-04-01T02:36:02.354Z,1.60
2019-04-01T02:38:49.720Z,1.60
2019-04-01T02:41:37.353Z,1.57
2019-04-01T02:44:24.466Z,1.07
2019-04-01T02:47:11.950Z,1.43
2019-04-01T02:49:59.102Z,1.70
2019-04-01T02:52:46.284Z,1.10
2019-04-01T02:55:34.057Z,1.33
2019-04-01T02:58:21.413Z,1.23
2019-04-01T03:01:08.587Z,1.20
2019-04-01T03:03:55.803Z,1.10
2019-04-01T03:06:43.341Z,1.30
2019-04-01T03:09:30.869Z,1.13
2019-04-01T03:12:18.145Z,1.40
2019-04-01T03:15:05.562Z,1.23
2019-04-01T03:17:52.988Z,1.37
2019-04-01T03:20:39.922Z,1.37
2019-04-01T03:23:26.845Z,1.00
2019-04-01T03:26:13.890Z,1.80
2019-04-01T03:29:01.167Z,1.63
2019-04-01T03:31:48.330Z,1.37
2019-04-01T03:34:35.822Z,1.00
2019-04-01T03:37:23.060Z,1.67
2019-04-01T03:40:10.302Z,1.57
2019-04-01T03:42:57.187Z,1.40
2019-04-01T03:45:44.287Z,1.63
2019-04-01T03:48:31.814Z,1.40
2019-04-01T03:51:19.341Z,1.30
2019-04-01T03:54:06.350Z,1.37
2019-04-01T03:56:53.245Z,1.57
2019-04-01T03:59:40.408Z,1.57
2019-04-01T04:02:27.921Z,1.30
2019-04-01T04:05:15.234Z,1.37
2019-04-01T04:08:02.435Z,1.53
2019-04-01T04:10:49.913Z,1.40
2019-04-01T04:13:37.484Z,1.67
2019-04-01T04:16:24.953Z,1.33
2019-04-01T04:19:12.137Z,1.55
2019-04-01T04:21:59.345Z,1.60
2019-04-01T04:24:46.379Z,1.40
2019-04-01T04:27:33.614Z,1.43
2019-04-01T04:30:20.746Z,1.60
2019-04-01T04:33:08.071Z,1.65
2019-04-01T04:35:55.387Z,1.50
2019-04-01T04:38:42.574Z,1.53
2019-04-01T04:41:29.525Z,1.37
2019-04-01T04:44:16.511Z,1.43
2019-04-01T04:47:04.097Z,1.70
2019-04-01T04:49:51.300Z,1.40
2019-04-01T04:52:38.605Z,1.57
2019-04-01T04:55:25.857Z,1.40
2019-04-01T04:58:13.310Z,1.50
2019-04-01T05:01:00.594Z,1.70
2019-04-01T05:03:47.865Z,1.73
2019-04-01T05:06:35.107Z,1.57
2019-04-01T05:09:22.133Z,1.43
2019-04-01T05:12:09.285Z,1.27
2019-04-01T05:14:56.265Z,1.50
2019-04-01T05:17:43.507Z,1.40
2019-04-01T05:20:32.208Z,1.30
2019-04-01T05:23:20.143Z,1.60
2019-04-01T05:26:09.409Z,1.60
2019-04-01T05:28:58.432Z,1.47
2019-04-01T05:31:47.286Z,1.53
2019-04-01T05:34:36.240Z,1.90
2019-04-01T05:37:23.673Z,1.40
2019-04-01T05:40:11.355Z,1.40
2019-04-01T05:42:59.409Z,1.43
2019-04-01T05:45:47.058Z,1.53
2019-04-01T05:48:34.359Z,1.30
2019-04-01T05:51:21.942Z,1.40
2019-04-01T05:54:09.378Z,1.50
2019-04-01T05:56:56.911Z,1.33
2019-04-01T05:59:44.304Z,1.20
2019-04-01T06:02:31.546Z,1.30
2019-04-01T06:05:19.241Z,1.93
2019-04-01T06:08:06.673Z,1.43
2019-04-01T06:10:54.018Z,1.77
2019-04-01T06:13:41.053Z,1.70
2019-04-01T06:16:28.585Z,1.67
2019-04-01T06:19:15.905Z,1.70
2019-04-01T06:22:03.265Z,1.63
2019-04-01T06:24:50.677Z,1.87
2019-04-01T06:27:37.624Z,1.63
2019-04-01T06:30:25.110Z,1.40
2019-04-01T06:33:12.815Z,1.30
2019-04-01T06:36:00.416Z,1.57
2019-04-01T06:38:47.970Z,1.60
2019-04-01T06:41:35.248Z,1.60
2019-04-01T06:44:22.443Z,1.87
2019-04-01T06:47:09.652Z,1.93
2019-04-01T06:49:56.888Z,1.63
2019-04-01T06:52:43.840Z,1.40
2019-04-01T06:55:31.044Z,1.67
2019-04-01T06:58:18.493Z,1.73
2019-04-01T07:01:06.102Z,1.50
2019-04-01T07:03:53.752Z,1.30
2019-04-01T07:06:40.808Z,1.20
2019-04-01T07:09:28.096Z,1.50
2019-04-01T07:12:15.717Z,1.37
2019-04-01T07:15:03.204Z,1.40
2019-04-01T07:17:50.553Z,1.40
2019-04-01T07:20:37.837Z,1.67
2019-04-01T07:23:25.361Z,1.40
2019-04-01T07:26:12.669Z,1.30
2019-04-01T07:28:59.968Z,1.50
2019-04-01T07:31:47.301Z,1.57
2019-04-01T07:34:34.300Z,1.33
2019-04-01T07:37:21.583Z,1.57
2019-04-01T07:40:08.650Z,1.67
2019-04-01T07:42:55.991Z,2.83
2019-04-01T07:45:43.053Z,1.63
2019-04-01T07:48:30.351Z,2.70
2019-04-01T07:51:17.951Z,1.37
2019-04-01T07:54:05.281Z,1.70
2019-04-01T07:56:52.406Z,1.73
2019-04-01T07:59:40.009Z,1.87
2019-04-01T08:02:27.401Z,2.00
2019-04-01T08:05:15.021Z,1.90
2019-04-01T08:08:02.354Z,1.43
2019-04-01T08:10:50.044Z,1.63
2019-04-01T08:13:37.269Z,1.50
2019-04-01T08:16:24.445Z,1.70
2019-04-01T08:19:12.014Z,1.60
2019-04-01T08:21:59.327Z,1.50
2019-04-01T08:24:46.500Z,2.03
2019-04-01T08:27:33.781Z,1.40
2019-04-01T08:30:20.956Z,2.20
2019-04-01T08:33:08.332Z,1.67
2019-04-01T08:35:55.617Z,1.50
2019-04-01T08:38:42.981Z,1.50
2019-04-01T08:41:30.413Z,1.50
2019-04-01T08:44:18.037Z,1.50
2019-04-01T08:47:05.381Z,1.57
2019-04-01T08:49:52.656Z,1.70
2019-04-01T08:52:39.703Z,1.63
2019-04-01T08:55:26.986Z,1.90
2019-04-01T08:58:14.628Z,1.80
2019-04-01T09:01:01.832Z,1.57
2019-04-01T09:03:49.061Z,2.07
2019-04-01T09:06:36.277Z,2.00
2019-04-01T09:09:24.965Z,1.90
2019-04-01T09:12:12.593Z,1.80
2019-04-01T09:15:01.422Z,3.17
2019-04-01T09:17:49.113Z,6.20
2019-04-01T09:20:36.393Z,1.57
2019-04-01T09:23:23.605Z,1.67
2019-04-01T09:26:10.640Z,1.70
2019-04-01T09:28:58.101Z,1.90
2019-04-01T09:31:45.392Z,1.60
2019-04-01T09:34:32.568Z,1.63
2019-04-01T09:37:20.057Z,1.70
2019-04-01T09:40:07.955Z,1.87
2019-04-01T09:42:55.418Z,2.00
2019-04-01T09:45:42.590Z,1.50
2019-04-01T09:48:30.097Z,1.90
2019-04-01T09:51:17.393Z,1.47
2019-04-01T09:54:04.624Z,1.77
2019-04-01T09:56:52.150Z,1.60
2019-04-01T09:59:39.765Z,1.60
2019-04-01T10:02:31.957Z,1.80
2019-04-01T10:05:16.465Z,1.60
2019-04-01T10:08:03.961Z,1.97
2019-04-01T10:10:51.023Z,1.70
2019-04-01T10:13:38.512Z,1.77
2019-04-01T10:16:26.606Z,2.60
2019-04-01T10:19:13.765Z,1.53
2019-04-01T10:22:00.946Z,1.80
2019-04-01T10:24:48.342Z,1.80
2019-04-01T10:27:35.680Z,1.90
2019-04-01T10:30:23.813Z,1.43
2019-04-01T10:33:11.166Z,1.70
2019-04-01T10:35:58.092Z,1.73
2019-04-01T10:38:46.804Z,1.80
2019-04-01T10:41:33.733Z,1.53
2019-04-01T10:44:21.149Z,1.63
2019-04-01T10:47:08.449Z,1.20
2019-04-01T10:49:55.761Z,1.27
2019-04-01T10:52:44.154Z,1.70
2019-04-01T10:55:31.829Z,1.67
2019-04-01T10:58:19.065Z,1.30
2019-04-01T11:01:06.631Z,1.67
2019-04-01T11:03:53.979Z,1.63
2019-04-01T11:06:41.341Z,2.10
2019-04-01T11:09:38.353Z,1.60
2019-04-01T11:12:17.571Z,1.80
2019-04-01T11:15:05.173Z,1.33
2019-04-01T11:17:52.887Z,1.50
2019-04-01T11:20:40.599Z,1.60
2019-04-01T11:23:28.050Z,1.80
2019-04-01T11:26:15.048Z,1.53
2019-04-01T11:29:02.953Z,1.20
2019-04-01T11:31:50.589Z,1.50
2019-04-01T11:34:38.061Z,1.40
2019-04-01T11:37:25.287Z,1.40
2019-04-01T11:40:13.597Z,1.60
2019-04-01T11:43:04.682Z,1.77
2019-04-01T11:45:49.716Z,1.77
2019-04-01T11:48:37.296Z,1.60
2019-04-01T11:51:32.803Z,1.80
2019-04-01T11:54:13.212Z,1.57
2019-04-01T11:57:00.945Z,1.40
2019-04-01T11:59:48.148Z,1.30
2019-04-01T12:02:35.478Z,1.63
2019-04-01T12:05:22.757Z,1.50
2019-04-01T12:08:09.983Z,1.77
2019-04-01T12:10:57.253Z,1.60
2019-04-01T12:13:44.733Z,1.40
2019-04-01T12:16:31.982Z,2.10
2019-04-01T12:19:18.937Z,1.70
2019-04-01T12:22:05.948Z,2.00
2019-04-01T12:24:53.869Z,1.73
2019-04-01T12:27:41.117Z,2.10
2019-04-01T12:30:28.401Z,1.70
2019-04-01T12:33:15.673Z,1.60
2019-04-01T12:36:04.411Z,1.43
2019-04-01T12:38:53.701Z,1.60
2019-04-01T12:41:40.516Z,1.87
2019-04-01T12:44:27.829Z,2.03
2019-04-01T12:47:15.696Z,1.43
2019-04-01T12:50:03.346Z,2.03
2019-04-01T12:52:50.749Z,1.83
2019-04-01T12:55:37.781Z,1.70
2019-04-01T12:58:25.419Z,2.03
2019-04-01T13:01:13.306Z,1.53
2019-04-01T13:04:03.998Z,1.80
2019-04-01T13:06:49.305Z,1.87
2019-04-01T13:09:36.539Z,1.87
2019-04-01T13:12:27.125Z,1.40
2019-04-01T13:15:13.306Z,1.60
2019-04-01T13:18:00.734Z,2.00
2019-04-01T13:20:51.413Z,1.60
2019-04-01T13:23:37.066Z,1.60
2019-04-01T13:26:24.061Z,1.93
2019-04-01T13:29:11.445Z,1.70
2019-04-01T13:32:00.571Z,1.60
2019-04-01T13:34:47.833Z,1.73
2019-04-01T13:37:35.270Z,1.90
2019-04-01T13:40:22.469Z,1.77
2019-04-01T13:43:09.741Z,1.53
2019-04-01T13:45:56.781Z,1.70
2019-04-01T13:48:56.917Z,1.70
2019-04-01T13:51:33.187Z,1.90
2019-04-01T13:54:20.148Z,1.40
2019-04-01T13:57:07.384Z,1.57
2019-04-01T13:59:54.584Z,1.70
2019-04-01T14:02:41.810Z,1.50
2019-04-01T14:05:28.881Z,1.63
2019-04-01T14:08:15.814Z,1.90
2019-04-01T14:11:05.802Z,1.70
2019-04-01T14:13:52.333Z,2.07
2019-04-01T14:16:41.455Z,1.97
2019-04-01T14:19:28.482Z,1.70
2019-04-01T14:22:15.676Z,1.60
2019-04-01T14:25:03.004Z,1.37
2019-04-01T14:27:50.208Z,1.60
2019-04-01T14:30:37.655Z,1.60
2019-04-01T14:33:24.906Z,1.93
2019-04-01T14:36:12.155Z,1.60
2019-04-01T14:38:59.689Z,1.73
2019-04-01T14:41:46.909Z,1.57
2019-04-01T14:44:34.069Z,2.27
2019-04-01T14:47:21.268Z,1.97
2019-04-01T14:50:09.498Z,1.37
2019-04-01T14:52:56.757Z,1.50
2019-04-01T14:55:44.340Z,1.40
2019-04-01T14:58:31.700Z,1.70
2019-04-01T15:01:18.876Z,1.80
2019-04-01T15:04:06.504Z,1.80
2019-04-01T15:06:53.461Z,1.70
2019-04-01T15:09:40.453Z,1.80
2019-04-01T15:12:27.785Z,2.40
2019-04-01T15:15:15.410Z,1.80
2019-04-01T15:18:02.626Z,1.70
2019-04-01T15:20:49.833Z,1.70
2019-04-01T15:23:37.222Z,1.60
2019-04-01T15:26:24.705Z,1.93
2019-04-01T15:29:12.113Z,1.80
2019-04-01T15:31:59.406Z,1.90
2019-04-01T15:34:46.660Z,1.40
2019-04-01T15:37:33.917Z,1.50
2019-04-01T15:40:21.500Z,1.60
2019-04-01T15:43:08.909Z,1.87
2019-04-01T15:45:55.844Z,2.00
2019-04-01T15:48:43.037Z,1.67
2019-04-01T15:51:30.277Z,1.60
2019-04-01T15:54:17.681Z,1.70
2019-04-01T15:57:04.970Z,1.50
2019-04-01T15:59:52.241Z,1.73
2019-04-01T16:02:39.220Z,1.40
2019-04-01T16:05:26.496Z,1.30
2019-04-01T16:08:13.452Z,1.50
2019-04-01T16:11:00.817Z,1.63
2019-04-01T16:13:48.109Z,1.50
2019-04-01T16:16:36.229Z,1.50
2019-04-01T16:19:23.762Z,1.80
2019-04-01T16:22:11.036Z,1.50
2019-04-01T16:24:58.286Z,1.63
2019-04-01T16:27:45.474Z,1.50
2019-04-01T16:30:32.913Z,2.10
2019-04-01T16:33:20.121Z,1.70
2019-04-01T16:36:07.017Z,2.27
2019-04-01T16:38:53.985Z,1.90
2019-04-01T16:41:41.438Z,1.87
2019-04-01T16:44:28.915Z,1.40
2019-04-01T16:47:16.232Z,1.60
2019-04-01T16:50:04.512Z,1.87
2019-04-01T16:52:52.649Z,1.90
2019-04-01T16:55:39.829Z,2.00
2019-04-01T16:58:27.424Z,1.53
2019-04-01T17:01:14.737Z,1.60
2019-04-01T17:04:02.265Z,1.40
2019-04-01T17:06:49.492Z,1.90
2019-04-01T17:09:36.729Z,1.50
2019-04-01T17:12:23.972Z,1.70
2019-04-01T17:15:11.329Z,1.27
2019-04-01T17:17:58.426Z,1.47
2019-04-01T17:20:45.697Z,1.67
2019-04-01T17:23:32.910Z,2.03
2019-04-01T17:26:38.548Z,1.70
2019-04-01T17:29:39.614Z,1.70
2019-04-01T17:32:40.465Z,1.30
2019-04-01T17:35:42.032Z,1.57
2019-04-01T17:38:43.428Z,1.80
2019-04-01T17:41:46.300Z,1.50
2019-04-01T17:44:46.990Z,1.83
2019-04-01T17:47:47.941Z,1.93
2019-04-01T17:50:48.690Z,1.53
2019-04-01T17:53:50.130Z,1.60
2019-04-01T17:56:51.461Z,1.43
2019-04-01T17:59:52.461Z,2.10
2019-04-01T18:02:53.210Z,1.90
2019-04-01T18:05:54.138Z,1.60
2019-04-01T18:08:55.129Z,1.70
2019-04-01T18:11:56.021Z,1.63
2019-04-01T18:14:56.938Z,1.70
2019-04-01T18:17:57.801Z,1.80
2019-04-01T18:20:58.691Z,1.90
2019-04-01T18:23:59.394Z,1.90
2019-04-01T18:27:00.246Z,1.97
2019-04-01T18:30:01.081Z,2.23
2019-04-01T18:32:54.792Z,1.90
2019-04-01T18:35:59.598Z,2.00
2019-04-01T18:39:08.232Z,1.93
2019-04-01T18:42:16.266Z,1.90
2019-04-01T18:45:24.297Z,1.80
2019-04-01T18:48:32.304Z,1.67
2019-04-01T18:51:40.648Z,1.90
2019-04-01T18:54:50.052Z,2.50
2019-04-01T18:57:58.081Z,2.70
2019-04-01T19:01:06.113Z,2.40
2019-04-01T19:04:14.134Z,2.23
2019-04-01T19:07:22.195Z,2.63
2019-04-01T19:10:22.685Z,2.80
2019-04-01T19:13:23.177Z,2.07
2019-04-01T19:16:24.041Z,2.07
2019-04-01T19:19:24.598Z,1.90
2019-04-01T19:22:25.149Z,2.00
2019-04-01T19:25:25.932Z,2.13
2019-04-01T19:28:27.076Z,2.47
2019-04-01T19:31:27.780Z,1.73
2019-04-01T19:34:28.602Z,1.90
2019-04-01T19:37:29.070Z,2.10
2019-04-01T19:40:29.747Z,2.07
2019-04-01T19:43:30.402Z,3.03
2019-04-01T19:46:31.303Z,2.13
2019-04-01T19:49:33.004Z,1.60
2019-04-01T19:52:33.889Z,2.30
2019-04-01T19:55:34.825Z,2.20
2019-04-01T19:58:35.522Z,2.23
2019-04-01T20:01:36.188Z,1.90
2019-04-01T20:04:36.829Z,1.80
2019-04-01T20:07:37.753Z,1.80
2019-04-01T20:10:38.465Z,2.13
2019-04-01T20:13:42.284Z,1.80
2019-04-01T20:16:42.134Z,1.20
2019-04-01T20:19:42.881Z,2.00
2019-04-01T20:22:43.942Z,2.30
2019-04-01T20:25:47.363Z,3.07
2019-04-01T20:28:47.641Z,2.10
2019-04-01T20:31:48.602Z,2.10
2019-04-01T20:34:56.775Z,2.37
2019-04-01T20:37:52.134Z,2.23
2019-04-01T20:40:53.276Z,2.10
2019-04-01T20:43:53.737Z,2.10
2019-04-01T20:46:54.546Z,1.83
2019-04-01T20:49:55.513Z,1.27
2019-04-01T20:52:56.273Z,2.10
2019-04-01T20:55:56.962Z,2.00
2019-04-01T20:58:57.652Z,1.30
2019-04-01T21:01:58.371Z,1.90
2019-04-01T21:04:59.233Z,1.60
2019-04-01T21:07:59.846Z,1.90
2019-04-01T21:11:00.790Z,1.97
2019-04-01T21:14:03.121Z,1.97
2019-04-01T21:17:04.334Z,2.00
2019-04-01T21:20:05.055Z,1.70
2019-04-01T21:23:07.050Z,2.17
2019-04-01T21:26:07.657Z,1.87
2019-04-01T21:29:08.383Z,1.97
2019-04-01T21:31:57.233Z,1.90
2019-04-01T21:35:05.443Z,1.90
2019-04-01T21:38:13.470Z,1.60
2019-04-01T21:41:21.480Z,1.60
2019-04-01T21:44:29.505Z,1.87
2019-04-01T21:47:37.593Z,1.70
2019-04-01T21:50:45.701Z,1.90
2019-04-01T21:53:53.720Z,2.07
2019-04-01T21:57:01.729Z,1.70
2019-04-01T22:03:44.495Z,1.80
2019-04-01T22:06:52.510Z,1.60
2019-04-01T22:09:53.342Z,1.80
2019-04-01T22:12:53.866Z,1.67
2019-04-01T22:15:54.441Z,1.97
2019-04-01T22:18:55.095Z,1.67
2019-04-01T22:21:55.721Z,1.87
2019-04-01T22:24:56.626Z,1.87
2019-04-01T22:27:56.993Z,2.13
2019-04-01T22:30:57.837Z,1.90
2019-04-01T22:33:58.745Z,1.60
2019-04-01T22:36:59.479Z,1.80
2019-04-01T22:40:00.230Z,3.10
2019-04-01T22:43:01.694Z,3.97
2019-04-01T22:46:02.393Z,3.47
2019-04-01T22:49:03.370Z,3.63
2019-04-01T22:52:04.173Z,3.20
2019-04-01T22:55:04.921Z,3.00
2019-04-01T22:58:05.832Z,3.80
2019-04-01T23:01:06.861Z,4.33
2019-04-01T23:04:08.114Z,3.97
2019-04-01T23:07:09.423Z,3.60
2019-04-01T23:10:10.034Z,2.80
2019-04-01T23:13:10.844Z,2.37
2019-04-01T23:16:12.965Z,2.80
2019-04-01T23:19:13.469Z,2.57
2019-04-01T23:22:14.433Z,2.23
2019-04-01T23:25:15.054Z,2.20
2019-04-01T23:28:15.837Z,2.03
2019-04-01T23:31:17.221Z,1.70
2019-04-01T23:34:19.387Z,2.00
2019-04-01T23:37:20.120Z,1.90
2019-04-01T23:40:20.877Z,1.90
2019-04-01T23:43:21.554Z,1.90
2019-04-01T23:46:22.125Z,1.83
2019-04-01T23:49:22.718Z,2.10
2019-04-01T23:52:23.374Z,1.57
2019-04-01T23:55:24.089Z,1.80
2019-04-01T23:58:24.902Z,1.90
